createdAt,value
2018-10-09T00:02:11.699Z,50.33
2018-10-09T00:04:40.580Z,56.73
2018-10-09T00:07:09.152Z,47.87
2018-10-09T00:09:37.740Z,48.93
2018-10-09T00:12:06.649Z,50.90
2018-10-09T00:14:35.256Z,44.13
2018-10-09T00:17:03.872Z,53.03
2018-10-09T00:19:32.551Z,58.17
2018-10-09T00:22:01.116Z,59.93
2018-10-09T00:24:29.699Z,52.53
2018-10-09T00:26:58.538Z,58.40
2018-10-09T00:29:27.156Z,60.40
2018-10-09T00:31:55.736Z,56.13
2018-10-09T00:34:24.486Z,64.30
2018-10-09T00:36:53.040Z,52.77
2018-10-09T00:39:21.599Z,65.00
2018-10-09T00:41:50.200Z,62.83
2018-10-09T00:44:18.803Z,56.73
2018-10-09T00:46:47.388Z,56.83
2018-10-09T00:49:16.227Z,53.70
2018-10-09T00:51:44.814Z,51.70
2018-10-09T00:54:13.411Z,50.77
2018-10-09T00:56:42.136Z,47.93
2018-10-09T00:59:10.726Z,51.83
2018-10-09T01:01:39.452Z,62.90
2018-10-09T01:04:08.140Z,59.53
2018-10-09T01:06:36.728Z,43.73
2018-10-09T01:09:07.771Z,51.77
2018-10-09T01:11:36.380Z,53.67
2018-10-09T01:14:04.985Z,56.53
2018-10-09T01:16:34.096Z,50.30
2018-10-09T01:19:02.664Z,50.23
2018-10-09T01:21:31.240Z,46.10
2018-10-09T01:23:59.835Z,65.13
2018-10-09T01:26:28.413Z,51.60
2018-10-09T01:28:57.000Z,50.17
2018-10-09T01:31:25.672Z,58.17
2018-10-09T01:33:54.240Z,57.63
2018-10-09T01:36:22.807Z,48.37
2018-10-09T01:38:52.271Z,61.83
2018-10-09T01:41:20.835Z,62.13
2018-10-09T01:43:49.429Z,62.37
2018-10-09T01:46:18.285Z,63.97
2018-10-09T01:48:46.888Z,68.13
2018-10-09T01:51:15.464Z,67.70
2018-10-09T01:53:44.128Z,73.13
2018-10-09T01:56:12.884Z,58.87
2018-10-09T01:58:41.476Z,71.40
2018-10-09T02:01:10.078Z,62.40
2018-10-09T02:03:38.751Z,60.37
2018-10-09T02:06:09.495Z,59.47
2018-10-09T02:08:38.863Z,62.83
2018-10-09T02:11:07.742Z,62.07
2018-10-09T02:13:36.753Z,56.60
2018-10-09T02:16:05.411Z,63.73
2018-10-09T02:18:34.001Z,71.77
2018-10-09T02:21:02.856Z,72.53
2018-10-09T02:23:31.439Z,59.23
2018-10-09T02:26:00.021Z,72.30
2018-10-09T02:28:28.727Z,59.17
2018-10-09T02:30:57.340Z,67.23
2018-10-09T02:33:26.017Z,68.33
2018-10-09T02:35:54.872Z,68.33
2018-10-09T02:38:23.480Z,64.80
2018-10-09T02:40:52.099Z,74.70
2018-10-09T02:43:21.100Z,77.07
2018-10-09T02:45:49.680Z,77.80
2018-10-09T02:48:18.263Z,67.93
2018-10-09T02:50:46.952Z,68.13
2018-10-09T02:53:15.899Z,75.90
2018-10-09T02:55:44.480Z,75.03
2018-10-09T02:58:13.111Z,73.30
2018-10-09T03:00:41.702Z,63.70
2018-10-09T03:03:10.279Z,69.80
2018-10-09T03:05:39.020Z,71.00
2018-10-09T03:08:07.595Z,67.67
2018-10-09T03:10:36.184Z,72.67
2018-10-09T03:13:04.901Z,81.27
2018-10-09T03:15:33.492Z,68.27
2018-10-09T03:18:02.076Z,62.20
2018-10-09T03:20:31.281Z,75.80
2018-10-09T03:22:59.872Z,68.90
2018-10-09T03:25:28.433Z,74.20
2018-10-09T03:27:57.221Z,69.77
2018-10-09T03:30:25.788Z,62.53
2018-10-09T03:32:54.396Z,72.90
2018-10-09T03:35:23.080Z,59.77
2018-10-09T03:37:51.656Z,62.20
2018-10-09T03:40:20.237Z,64.70
2018-10-09T03:42:48.936Z,74.70
2018-10-09T03:45:17.564Z,81.67
2018-10-09T03:47:46.167Z,66.23
2018-10-09T03:50:14.808Z,67.53
2018-10-09T03:52:43.399Z,73.10
2018-10-09T03:55:11.992Z,77.70
2018-10-09T03:57:40.628Z,81.90
2018-10-09T04:00:09.334Z,79.30
2018-10-09T04:02:37.909Z,77.80
2018-10-09T04:05:06.638Z,68.57
2018-10-09T04:07:35.320Z,67.87
2018-10-09T04:10:03.932Z,79.30
2018-10-09T04:12:32.576Z,70.87
2018-10-09T04:15:01.161Z,67.20
2018-10-09T04:17:29.765Z,64.77
2018-10-09T04:19:58.612Z,72.57
2018-10-09T04:22:27.224Z,73.17
2018-10-09T04:24:55.811Z,74.40
2018-10-09T04:27:24.520Z,69.60
2018-10-09T04:29:53.194Z,76.67
2018-10-09T04:32:21.797Z,68.37
2018-10-09T04:34:50.610Z,75.23
2018-10-09T04:37:19.224Z,65.43
2018-10-09T04:39:47.915Z,62.00
2018-10-09T04:42:16.643Z,53.70
2018-10-09T04:44:45.240Z,75.10
2018-10-09T04:47:13.826Z,68.93
2018-10-09T04:49:42.539Z,81.77
2018-10-09T04:52:11.111Z,57.33
2018-10-09T04:54:40.054Z,62.03
2018-10-09T04:57:08.731Z,59.43
2018-10-09T04:59:37.320Z,67.30
2018-10-09T05:02:05.903Z,60.67
2018-10-09T05:04:34.597Z,55.67
2018-10-09T05:07:03.186Z,62.87
2018-10-09T05:09:31.766Z,58.53
2018-10-09T05:12:00.785Z,51.30
2018-10-09T05:14:29.553Z,50.23
2018-10-09T05:16:58.129Z,54.43
2018-10-09T05:19:26.820Z,52.13
2018-10-09T05:21:55.398Z,59.63
2018-10-09T05:24:23.979Z,51.03
2018-10-09T05:26:52.655Z,55.00
2018-10-09T05:29:21.232Z,61.90
2018-10-09T05:31:49.792Z,53.57
2018-10-09T05:34:18.491Z,54.33
2018-10-09T05:36:47.084Z,53.33
2018-10-09T05:39:15.647Z,56.07
2018-10-09T05:41:44.992Z,60.13
2018-10-09T05:44:13.874Z,50.67
2018-10-09T05:46:42.428Z,56.90
2018-10-09T05:49:11.095Z,56.80
2018-10-09T05:51:39.696Z,58.87
2018-10-09T05:54:08.323Z,52.87
2018-10-09T05:56:37.020Z,44.47
2018-10-09T05:59:05.899Z,60.83
2018-10-09T06:01:34.480Z,55.07
2018-10-09T06:04:03.539Z,65.83
2018-10-09T06:06:32.100Z,56.20
2018-10-09T06:09:01.085Z,65.07
2018-10-09T06:11:30.281Z,60.40
2018-10-09T06:13:58.864Z,59.00
2018-10-09T06:16:27.447Z,81.50
2018-10-09T06:18:56.052Z,57.03
2018-10-09T06:21:25.377Z,56.63
2018-10-09T06:23:53.971Z,57.57
2018-10-09T06:26:22.644Z,57.10
2018-10-09T06:28:51.235Z,63.23
2018-10-09T06:31:19.808Z,55.83
2018-10-09T06:33:48.465Z,58.00
2018-10-09T06:36:17.052Z,55.60
2018-10-09T06:38:45.616Z,58.37
2018-10-09T06:41:14.336Z,65.20
2018-10-09T06:43:42.923Z,72.57
2018-10-09T06:46:15.976Z,63.23
2018-10-09T06:48:44.552Z,70.53
2018-10-09T06:51:13.119Z,67.37
2018-10-09T06:53:41.877Z,62.90
2018-10-09T06:56:10.775Z,60.93
2018-10-09T06:58:39.844Z,65.10
2018-10-09T07:01:08.855Z,68.00
2018-10-09T07:03:37.492Z,63.30
2018-10-09T07:06:06.079Z,61.83
2018-10-09T07:08:34.784Z,65.00
2018-10-09T07:11:03.416Z,59.50
2018-10-09T07:13:31.979Z,62.37
2018-10-09T07:16:01.016Z,65.07
2018-10-09T07:18:30.073Z,62.87
2018-10-09T07:20:58.652Z,61.93
2018-10-09T07:23:27.384Z,60.37
2018-10-09T07:25:55.967Z,57.90
2018-10-09T07:28:24.523Z,59.23
2018-10-09T07:30:53.183Z,67.67
2018-10-09T07:33:21.777Z,62.90
2018-10-09T07:35:50.351Z,63.07
2018-10-09T07:38:18.963Z,56.43
2018-10-09T07:40:47.532Z,64.37
2018-10-09T07:43:16.132Z,59.83
2018-10-09T07:45:45.017Z,64.53
2018-10-09T07:48:13.608Z,59.37
2018-10-09T07:50:42.216Z,61.53
2018-10-09T07:53:10.807Z,60.27
2018-10-09T07:55:39.537Z,69.93
2018-10-09T07:58:08.200Z,66.50
2018-10-09T08:00:36.876Z,62.97
2018-10-09T08:03:05.463Z,55.37
2018-10-09T08:05:34.032Z,57.83
2018-10-09T08:08:02.716Z,62.43
2018-10-09T08:10:31.384Z,66.40
2018-10-09T08:13:00.337Z,69.17
2018-10-09T08:15:29.395Z,73.97
2018-10-09T08:17:57.979Z,70.80
2018-10-09T08:20:26.574Z,77.00
2018-10-09T08:22:55.326Z,82.27
2018-10-09T08:25:23.812Z,84.10
2018-10-09T08:27:52.380Z,81.60
2018-10-09T08:30:20.999Z,88.83
2018-10-09T08:32:49.600Z,85.70
2018-10-09T08:35:18.171Z,67.13
2018-10-09T08:37:46.820Z,71.30
2018-10-09T08:40:15.449Z,66.83
2018-10-09T08:42:44.000Z,62.63
2018-10-09T08:45:12.707Z,63.57
2018-10-09T08:47:41.306Z,79.53
2018-10-09T08:50:09.898Z,76.20
2018-10-09T08:52:38.559Z,83.53
2018-10-09T08:55:07.177Z,76.67
2018-10-09T08:57:35.780Z,80.57
2018-10-09T09:00:05.436Z,67.13
2018-10-09T09:02:34.004Z,74.70
2018-10-09T09:05:03.129Z,67.30
2018-10-09T09:07:31.807Z,68.13
2018-10-09T09:10:00.372Z,77.67
2018-10-09T09:12:29.524Z,66.33
2018-10-09T09:14:58.205Z,79.17
2018-10-09T09:17:26.804Z,70.73
2018-10-09T09:19:55.417Z,62.23
2018-10-09T09:22:24.169Z,74.00
2018-10-09T09:24:52.771Z,80.47
2018-10-09T09:27:21.447Z,67.70
2018-10-09T09:29:49.991Z,69.50
2018-10-09T09:32:18.588Z,77.30
2018-10-09T09:34:47.193Z,74.43
2018-10-09T09:37:15.912Z,75.03
2018-10-09T09:39:44.492Z,71.90
2018-10-09T09:42:13.104Z,72.67
2018-10-09T09:44:41.791Z,74.97
2018-10-09T09:47:10.388Z,73.27
2018-10-09T09:49:38.963Z,71.80
2018-10-09T09:52:07.757Z,66.67
2018-10-09T09:54:36.279Z,62.77
2018-10-09T09:57:04.904Z,56.90
2018-10-09T09:59:33.548Z,63.63
2018-10-09T10:02:02.144Z,63.37
2018-10-09T10:04:30.720Z,66.47
2018-10-09T10:06:59.449Z,58.07
2018-10-09T10:09:28.126Z,66.43
2018-10-09T10:11:56.645Z,65.07
2018-10-09T10:14:25.254Z,57.10
2018-10-09T10:16:53.849Z,59.17
2018-10-09T10:19:22.440Z,62.47
2018-10-09T10:21:51.479Z,60.97
2018-10-09T10:24:20.110Z,60.00
2018-10-09T10:26:48.675Z,65.37
2018-10-09T10:29:17.360Z,58.30
2018-10-09T10:31:45.910Z,60.67
2018-10-09T10:34:14.526Z,49.43
2018-10-09T10:36:43.279Z,45.27
2018-10-09T10:39:12.877Z,52.40
2018-10-09T10:41:42.117Z,51.43
2018-10-09T10:44:10.827Z,52.17
2018-10-09T10:46:40.572Z,50.93
2018-10-09T10:49:11.853Z,51.97
2018-10-09T10:51:40.387Z,54.33
2018-10-09T10:54:09.021Z,49.90
2018-10-09T10:56:37.719Z,60.23
2018-10-09T10:59:06.330Z,54.37
2018-10-09T11:01:34.967Z,57.97
2018-10-09T11:04:03.536Z,49.93
2018-10-09T11:06:32.193Z,52.67
2018-10-09T11:09:00.775Z,48.03
2018-10-09T11:11:30.338Z,45.00
2018-10-09T11:13:58.903Z,41.10
2018-10-09T11:16:27.648Z,44.13
2018-10-09T11:18:56.703Z,50.83
2018-10-09T11:21:25.348Z,47.40
2018-10-09T11:23:54.364Z,41.30
2018-10-09T11:26:23.373Z,46.93
2018-10-09T11:28:51.960Z,38.10
2018-10-09T11:31:20.616Z,33.77
2018-10-09T11:33:49.344Z,33.77
2018-10-09T11:36:17.936Z,31.77
2018-10-09T11:38:46.512Z,36.40
2018-10-09T11:41:15.145Z,36.53
2018-10-09T11:43:43.746Z,29.80
2018-10-09T11:46:12.368Z,35.73
2018-10-09T11:48:40.980Z,29.87
2018-10-09T11:51:09.595Z,33.20
2018-10-09T11:53:38.178Z,30.17
2018-10-09T11:56:07.136Z,28.60
2018-10-09T11:58:36.053Z,26.77
2018-10-09T12:01:06.900Z,28.13
2018-10-09T12:03:35.583Z,36.10
2018-10-09T12:06:04.227Z,30.47
2018-10-09T12:08:32.852Z,33.80
2018-10-09T12:11:01.964Z,38.23
2018-10-09T12:13:30.585Z,33.03
2018-10-09T12:15:59.812Z,34.73
2018-10-09T12:18:28.295Z,37.17
2018-10-09T12:20:56.928Z,38.33
2018-10-09T12:23:25.651Z,34.03
2018-10-09T12:25:54.304Z,41.00
2018-10-09T12:28:23.321Z,33.03
2018-10-09T12:30:52.403Z,37.20
2018-10-09T12:33:21.069Z,35.43
2018-10-09T12:35:49.675Z,37.07
2018-10-09T12:38:18.449Z,40.33
2018-10-09T12:40:47.116Z,43.17
2018-10-09T12:43:16.088Z,37.53
2018-10-09T12:45:44.732Z,42.83
2018-10-09T12:48:13.360Z,43.53
2018-10-09T12:50:42.339Z,36.30
2018-10-09T12:53:11.008Z,36.13
2018-10-09T12:55:39.634Z,37.97
2018-10-09T12:58:08.636Z,34.80
2018-10-09T13:00:37.600Z,33.27
2018-10-09T13:03:06.685Z,34.33
2018-10-09T13:05:35.260Z,38.50
2018-10-09T13:08:03.932Z,44.67
2018-10-09T13:10:32.521Z,34.73
2018-10-09T13:13:01.140Z,36.23
2018-10-09T13:15:29.828Z,40.47
2018-10-09T13:17:58.406Z,35.07
2018-10-09T13:20:27.000Z,34.93
2018-10-09T13:22:56.181Z,35.40
2018-10-09T13:25:24.756Z,41.07
2018-10-09T13:27:53.388Z,35.30
2018-10-09T13:30:22.017Z,32.63
2018-10-09T13:32:50.632Z,37.47
2018-10-09T13:35:19.242Z,29.20
2018-10-09T13:37:47.959Z,31.83
2018-10-09T13:40:16.533Z,36.30
2018-10-09T13:42:45.115Z,34.83
2018-10-09T13:45:13.820Z,32.47
2018-10-09T13:47:42.482Z,27.30
2018-10-09T13:50:11.042Z,29.03
2018-10-09T13:52:40.084Z,31.33
2018-10-09T13:55:08.721Z,35.23
2018-10-09T13:57:37.660Z,31.07
2018-10-09T14:00:06.797Z,28.33
2018-10-09T14:02:35.396Z,40.53
2018-10-09T14:05:04.012Z,24.23
2018-10-09T14:07:32.699Z,26.53
2018-10-09T14:10:01.296Z,29.20
2018-10-09T14:12:29.896Z,27.80
2018-10-09T14:14:58.674Z,28.27
2018-10-09T14:17:27.291Z,33.80
2018-10-09T14:19:55.860Z,22.53
2018-10-09T14:22:25.007Z,23.23
2018-10-09T14:24:53.579Z,26.17
2018-10-09T14:27:22.188Z,25.63
2018-10-09T14:29:50.872Z,22.70
2018-10-09T14:32:19.443Z,24.50
2018-10-09T14:34:48.057Z,24.57
2018-10-09T14:37:16.732Z,23.47
2018-10-09T14:39:45.317Z,20.93
2018-10-09T14:42:13.908Z,21.23
2018-10-09T14:44:43.302Z,26.57
2018-10-09T14:47:11.976Z,25.30
2018-10-09T14:49:40.612Z,25.73
2018-10-09T14:52:09.297Z,26.00
2018-10-09T14:54:37.885Z,30.37
2018-10-09T14:57:06.491Z,23.97
2018-10-09T14:59:35.104Z,28.57
2018-10-09T15:02:03.918Z,34.10
2018-10-09T15:04:34.061Z,23.70
2018-10-09T15:07:02.708Z,25.80
2018-10-09T15:09:31.341Z,25.80
2018-10-09T15:11:59.938Z,21.20
2018-10-09T15:14:28.615Z,23.13
2018-10-09T15:16:57.265Z,26.27
2018-10-09T15:19:25.856Z,22.40
2018-10-09T15:21:54.496Z,25.50
2018-10-09T15:24:23.169Z,26.67
2018-10-09T15:26:51.792Z,24.60
2018-10-09T15:29:20.707Z,23.87
2018-10-09T15:31:50.090Z,25.20
2018-10-09T15:34:18.931Z,21.13
2018-10-09T15:36:47.543Z,21.47
2018-10-09T15:39:16.123Z,27.80
2018-10-09T15:41:44.760Z,27.40
2018-10-09T15:44:13.392Z,22.50
2018-10-09T15:46:42.035Z,25.33
2018-10-09T15:49:11.020Z,32.37
2018-10-09T15:51:39.704Z,28.27
2018-10-09T15:54:08.283Z,22.53
2018-10-09T15:56:36.994Z,22.50
2018-10-09T15:59:05.631Z,24.57
2018-10-09T16:01:34.248Z,25.10
2018-10-09T16:04:02.956Z,27.73
2018-10-09T16:06:31.781Z,23.23
2018-10-09T16:09:00.799Z,24.77
2018-10-09T16:11:29.915Z,22.50
2018-10-09T16:13:58.657Z,20.43
2018-10-09T16:16:27.267Z,18.50
2018-10-09T16:18:55.851Z,16.13
2018-10-09T16:21:24.525Z,24.60
2018-10-09T16:23:53.116Z,20.00
2018-10-09T16:26:21.824Z,19.57
2018-10-09T16:28:50.631Z,15.50
2018-10-09T16:31:19.227Z,24.43
2018-10-09T16:33:47.825Z,21.27
2018-10-09T16:36:16.459Z,19.67
2018-10-09T16:38:45.038Z,14.53
2018-10-09T16:41:13.647Z,16.00
2018-10-09T16:43:42.243Z,16.97
2018-10-09T16:46:11.023Z,15.70
2018-10-09T16:48:39.631Z,15.80
2018-10-09T16:51:08.276Z,16.20
2018-10-09T16:53:36.888Z,16.73
2018-10-09T16:56:05.488Z,23.37
2018-10-09T16:58:34.192Z,21.90
2018-10-09T17:01:02.757Z,19.90
2018-10-09T17:03:31.360Z,18.20
2018-10-09T17:06:01.068Z,18.47
2018-10-09T17:08:29.658Z,18.07
2018-10-09T17:10:58.241Z,15.27
2018-10-09T17:13:26.958Z,18.60
2018-10-09T17:15:55.567Z,17.43
2018-10-09T17:18:24.188Z,19.70
2018-10-09T17:20:52.880Z,21.47
2018-10-09T17:23:21.463Z,21.37
2018-10-09T17:25:50.171Z,25.73
2018-10-09T17:28:18.856Z,27.37
2018-10-09T17:30:47.507Z,24.47
2018-10-09T17:33:16.138Z,31.90
2018-10-09T17:35:44.728Z,25.40
2018-10-09T17:38:13.299Z,24.77
2018-10-09T17:40:41.881Z,28.63
2018-10-09T17:43:10.600Z,29.80
2018-10-09T17:45:39.311Z,32.10
2018-10-09T17:48:07.920Z,34.50
2018-10-09T17:50:36.659Z,34.20
2018-10-09T17:53:05.332Z,34.63
2018-10-09T17:55:33.928Z,33.03
2018-10-09T17:58:02.583Z,33.30
2018-10-09T18:00:31.187Z,35.30
2018-10-09T18:02:59.764Z,28.20
2018-10-09T18:05:28.419Z,40.70
2018-10-09T18:07:57.049Z,38.50
2018-10-09T18:10:25.648Z,36.13
2018-10-09T18:12:54.340Z,43.97
2018-10-09T18:15:22.948Z,36.00
2018-10-09T18:17:51.575Z,45.83
2018-10-09T18:20:20.664Z,37.27
2018-10-09T18:22:49.216Z,36.40
2018-10-09T18:25:17.824Z,43.60
2018-10-09T18:27:46.528Z,40.80
2018-10-09T18:30:15.583Z,42.97
2018-10-09T18:32:44.309Z,39.70
2018-10-09T18:35:12.900Z,39.03
2018-10-09T18:37:41.484Z,44.03
2018-10-09T18:40:10.100Z,46.67
2018-10-09T18:42:38.761Z,48.43
2018-10-09T18:45:07.745Z,48.60
2018-10-09T18:47:41.791Z,47.57
2018-10-09T18:50:10.852Z,51.20
2018-10-09T18:52:40.472Z,58.27
2018-10-09T18:55:11.565Z,43.90
2018-10-09T18:57:40.207Z,47.87
2018-10-09T19:00:09.847Z,51.07
2018-10-09T19:02:39.468Z,45.57
2018-10-09T19:05:08.592Z,55.20
2018-10-09T19:07:37.480Z,51.67
2018-10-09T19:10:06.407Z,46.20
2018-10-09T19:12:35.011Z,49.17
2018-10-09T19:15:03.654Z,60.53
2018-10-09T19:17:32.536Z,47.10
2018-10-09T19:20:01.140Z,49.03
2018-10-09T19:22:29.728Z,60.23
2018-10-09T19:24:58.333Z,48.37
2018-10-09T19:27:26.978Z,58.03
2018-10-09T19:29:55.556Z,52.80
2018-10-09T19:32:24.429Z,54.77
2018-10-09T19:34:52.964Z,69.43
2018-10-09T19:37:22.180Z,57.40
2018-10-09T19:39:51.239Z,61.07
2018-10-09T19:42:19.831Z,66.57
2018-10-09T19:44:48.435Z,61.03
2018-10-09T19:47:17.361Z,67.10
2018-10-09T19:49:45.965Z,61.50
2018-10-09T19:52:14.544Z,59.47
2018-10-09T19:54:43.571Z,52.63
2018-10-09T19:57:12.224Z,59.00
2018-10-09T19:59:41.296Z,57.30
2018-10-09T20:02:10.367Z,63.50
2018-10-09T20:04:39.232Z,68.53
2018-10-09T20:07:07.953Z,61.77
2018-10-09T20:09:36.692Z,66.13
2018-10-09T20:12:05.356Z,67.73
2018-10-09T20:14:33.962Z,67.47
2018-10-09T20:17:02.959Z,63.13
2018-10-09T20:19:31.542Z,66.13
2018-10-09T20:22:00.142Z,65.60
2018-10-09T20:24:29.037Z,63.00
2018-10-09T20:26:57.817Z,62.97
2018-10-09T20:29:26.412Z,63.20
2018-10-09T20:31:55.050Z,68.93
2018-10-09T20:34:23.665Z,69.40
2018-10-09T20:36:52.248Z,72.63
2018-10-09T20:39:20.931Z,60.87
2018-10-09T20:41:49.543Z,67.63
2018-10-09T20:44:18.168Z,75.73
2018-10-09T20:46:46.920Z,66.03
2018-10-09T20:49:15.712Z,76.50
2018-10-09T20:51:44.662Z,71.20
2018-10-09T20:54:14.532Z,70.47
2018-10-09T20:56:43.661Z,74.47
2018-10-09T20:59:12.283Z,70.60
2018-10-09T21:01:41.009Z,75.50
2018-10-09T21:04:09.636Z,77.57
2018-10-09T21:06:38.477Z,64.87
2018-10-09T21:09:07.641Z,77.13
2018-10-09T21:11:36.212Z,71.90
2018-10-09T21:14:04.837Z,76.90
2018-10-09T21:16:33.533Z,79.70
2018-10-09T21:19:02.751Z,74.87
2018-10-09T21:21:31.467Z,81.23
2018-10-09T21:24:00.455Z,88.73
2018-10-09T21:26:29.524Z,66.57
2018-10-09T21:28:58.142Z,73.00
2018-10-09T21:31:26.936Z,75.00
2018-10-09T21:33:55.676Z,71.20
2018-10-09T21:36:24.505Z,78.63
2018-10-09T21:38:53.642Z,97.00
2018-10-09T21:41:22.580Z,108.27
2018-10-09T21:43:51.182Z,94.57
2018-10-09T21:46:20.147Z,95.53
2018-10-09T21:48:48.734Z,91.03
2018-10-09T21:51:17.422Z,90.20
2018-10-09T21:53:46.992Z,93.80
2018-10-09T21:56:15.812Z,71.70
2018-10-09T21:58:44.799Z,86.77
2018-10-09T22:01:14.010Z,81.90
2018-10-09T22:03:42.944Z,76.10
2018-10-09T22:06:12.163Z,74.43
2018-10-09T22:08:41.256Z,74.40
2018-10-09T22:11:10.308Z,63.47
2018-10-09T22:13:39.438Z,87.17
2018-10-09T22:16:08.339Z,76.97
2018-10-09T22:18:36.925Z,67.90
2018-10-09T22:21:06.021Z,75.50
2018-10-09T22:23:34.775Z,75.50
2018-10-09T22:26:03.578Z,69.30
2018-10-09T22:28:32.383Z,74.13
2018-10-09T22:31:01.170Z,68.53
2018-10-09T22:33:30.096Z,70.63
2018-10-09T22:35:58.740Z,71.30
2018-10-09T22:38:27.929Z,78.40
2018-10-09T22:40:56.628Z,79.90
2018-10-09T22:43:25.388Z,75.50
2018-10-09T22:45:55.054Z,81.20
2018-10-09T22:48:23.763Z,74.97
2018-10-09T22:50:52.399Z,77.53
2018-10-09T22:53:21.080Z,76.73
2018-10-09T22:55:49.732Z,86.47
2018-10-09T22:58:18.359Z,73.53
2018-10-09T23:00:46.983Z,82.50
2018-10-09T23:03:15.619Z,66.83
2018-10-09T23:05:44.239Z,82.90
2018-10-09T23:08:13.625Z,66.47
2018-10-09T23:10:42.203Z,78.73
2018-10-09T23:13:10.836Z,84.47
2018-10-09T23:15:39.520Z,78.10
2018-10-09T23:18:08.168Z,87.50
2018-10-09T23:20:36.817Z,78.73
2018-10-09T23:23:05.443Z,75.00
2018-10-09T23:25:34.084Z,75.97
2018-10-09T23:28:03.268Z,78.67
2018-10-09T23:30:32.311Z,70.03
2018-10-09T23:33:01.502Z,65.80
2018-10-09T23:35:30.181Z,71.07
2018-10-09T23:37:58.879Z,81.90
2018-10-09T23:40:28.097Z,71.83
2018-10-09T23:42:56.841Z,66.77
2018-10-09T23:45:25.533Z,65.77
2018-10-09T23:47:58.324Z,67.47
2018-10-09T23:50:27.021Z,67.30
2018-10-09T23:52:56.587Z,70.57
2018-10-09T23:55:25.293Z,72.43
2018-10-09T23:57:53.944Z,68.43
